createdAt,value
2022-10-23T00:01:44.661Z,68.03
2022-10-23T00:04:20.676Z,67.13
2022-10-23T00:06:48.932Z,68.03
2022-10-23T00:09:19.305Z,70.07
2022-10-23T00:11:47.827Z,70.10
2022-10-23T00:14:16.021Z,69.21
2022-10-23T00:16:42.591Z,68.97
2022-10-23T00:19:09.279Z,71.53
2022-10-23T00:21:36.237Z,70.11
2022-10-23T00:24:03.007Z,71.75
2022-10-23T00:26:29.708Z,73.03
2022-10-23T00:28:56.400Z,71.75
2022-10-23T00:31:26.162Z,70.46
2022-10-23T00:33:53.091Z,71.60
2022-10-23T00:36:21.302Z,71.78
2022-10-23T00:38:48.767Z,72.13
2022-10-23T00:41:22.010Z,71.17
2022-10-23T00:44:01.863Z,71.00
2022-10-23T00:46:28.718Z,72.11
2022-10-23T00:48:56.963Z,73.80
2022-10-23T00:51:27.704Z,71.40
2022-10-23T00:54:12.910Z,71.17
2022-10-23T00:56:46.699Z,70.87
2022-10-23T00:59:14.162Z,69.93
2022-10-23T01:01:41.513Z,69.98
2022-10-23T01:04:09.984Z,70.24
2022-10-23T01:06:52.754Z,69.79
2022-10-23T01:09:37.586Z,69.47
2022-10-23T01:12:23.684Z,70.75
2022-10-23T01:15:01.057Z,70.83
2022-10-23T01:17:42.353Z,71.84
2022-10-23T01:20:35.276Z,71.19
2022-10-23T01:23:12.297Z,69.19
2022-10-23T01:25:57.169Z,68.39
2022-10-23T01:28:39.698Z,68.50
2022-10-23T01:31:16.225Z,69.76
2022-10-23T01:33:48.822Z,73.11
2022-10-23T01:36:20.867Z,71.67
2022-10-23T01:38:58.287Z,71.52
2022-10-23T01:41:24.899Z,71.49
2022-10-23T01:43:51.544Z,68.77
2022-10-23T01:46:18.761Z,69.82
2022-10-23T01:48:55.515Z,70.53
2022-10-23T01:51:27.982Z,69.76
2022-10-23T01:54:01.040Z,70.00
2022-10-23T01:56:35.538Z,70.33
2022-10-23T01:59:08.569Z,71.48
2022-10-23T02:01:41.737Z,70.52
2022-10-23T02:04:13.290Z,67.36
2022-10-23T02:06:39.967Z,68.19
2022-10-23T02:09:07.709Z,68.70
2022-10-23T02:11:48.400Z,69.75
2022-10-23T02:14:35.168Z,69.02
2022-10-23T02:17:40.788Z,70.01
2022-10-23T02:20:10.268Z,71.24
2022-10-23T02:22:44.228Z,69.15
2022-10-23T02:25:19.918Z,68.42
2022-10-23T02:27:56.967Z,67.44
2022-10-23T02:30:24.036Z,66.66
2022-10-23T02:32:54.716Z,66.88
2022-10-23T02:35:24.820Z,66.63
2022-10-23T02:37:56.469Z,69.19
2022-10-23T02:40:31.570Z,68.21
2022-10-23T02:43:20.130Z,67.01
2022-10-23T02:46:25.582Z,67.67
2022-10-23T02:49:15.200Z,69.33
2022-10-23T02:52:00.736Z,70.05
2022-10-23T02:54:47.573Z,71.08
2022-10-23T02:57:35.436Z,72.99
2022-10-23T03:00:01.962Z,71.81
2022-10-23T03:02:50.108Z,71.27
2022-10-23T03:05:22.211Z,70.47
2022-10-23T03:07:49.876Z,70.65
2022-10-23T03:10:16.581Z,70.06
2022-10-23T03:12:44.084Z,71.84
2022-10-23T03:15:11.762Z,72.11
2022-10-23T03:17:38.574Z,73.91
2022-10-23T03:20:06.651Z,70.75
2022-10-23T03:22:33.932Z,70.20
2022-10-23T03:25:00.562Z,69.73
2022-10-23T03:29:58.614Z,71.28
2022-10-23T03:32:25.236Z,71.17
2022-10-23T03:34:51.833Z,71.36
2022-10-23T03:37:21.598Z,70.24
2022-10-23T03:39:48.435Z,68.93
2022-10-23T03:42:15.028Z,70.31
2022-10-23T03:44:41.623Z,73.12
2022-10-23T03:47:08.194Z,72.12
2022-10-23T03:49:34.782Z,70.19
2022-10-23T03:52:01.412Z,71.12
2022-10-23T03:54:28.325Z,72.55
2022-10-23T03:56:57.522Z,74.30
2022-10-23T03:59:24.682Z,74.81
2022-10-23T04:01:52.935Z,76.03
2022-10-23T04:04:19.690Z,75.52
2022-10-23T04:06:46.309Z,74.17
2022-10-23T04:11:44.673Z,74.52
2022-10-23T04:14:31.254Z,74.29
2022-10-23T04:17:05.050Z,72.82
2022-10-23T04:19:31.676Z,74.27
2022-10-23T04:21:58.278Z,73.46
2022-10-23T04:24:25.883Z,74.51
2022-10-23T04:26:52.694Z,74.16
2022-10-23T04:29:19.727Z,74.12
2022-10-23T04:31:46.321Z,74.36
2022-10-23T04:34:12.924Z,72.60
2022-10-23T04:36:39.502Z,72.05
2022-10-23T04:39:06.284Z,75.11
2022-10-23T04:41:32.942Z,74.66
2022-10-23T04:43:59.583Z,75.24
2022-10-23T04:46:26.198Z,73.10
2022-10-23T04:48:52.772Z,76.05
2022-10-23T04:51:19.376Z,75.06
2022-10-23T04:53:45.982Z,75.26
2022-10-23T04:56:15.773Z,76.93
2022-10-23T04:58:42.839Z,77.19
2022-10-23T05:01:10.559Z,72.94
2022-10-23T05:03:38.295Z,72.52
2022-10-23T05:06:06.148Z,71.62
2022-10-23T05:08:33.052Z,75.83
2022-10-23T05:10:59.921Z,76.53
2022-10-23T05:13:26.502Z,78.01
2022-10-23T05:15:53.745Z,75.12
2022-10-23T05:18:29.102Z,73.59
2022-10-23T05:21:02.477Z,76.64
2022-10-23T05:23:33.254Z,76.86
2022-10-23T05:26:00.362Z,75.64
2022-10-23T05:28:27.078Z,72.95
2022-10-23T05:30:53.781Z,71.94
2022-10-23T05:33:20.509Z,75.56
2022-10-23T05:35:47.176Z,74.90
2022-10-23T05:38:15.242Z,74.07
2022-10-23T05:40:41.873Z,75.03
2022-10-23T05:43:08.459Z,76.29
2022-10-23T05:45:35.199Z,76.52
2022-10-23T05:48:11.029Z,76.43
2022-10-23T05:50:48.616Z,76.56
2022-10-23T05:53:15.200Z,77.57
2022-10-23T05:55:44.093Z,76.55
2022-10-23T05:58:10.712Z,75.75
2022-10-23T06:00:37.273Z,74.88
2022-10-23T06:03:03.990Z,76.72
2022-10-23T06:05:30.586Z,78.45
2022-10-23T06:07:58.945Z,76.54
2022-10-23T06:10:26.445Z,75.89
2022-10-23T06:12:53.041Z,76.65
2022-10-23T06:15:19.669Z,75.32
2022-10-23T06:17:46.418Z,74.45
2022-10-23T06:20:13.237Z,77.76
2022-10-23T06:22:40.185Z,76.84
2022-10-23T06:25:07.863Z,74.90
2022-10-23T06:27:34.451Z,77.60
2022-10-23T06:30:01.028Z,79.85
2022-10-23T06:32:32.316Z,79.05
2022-10-23T06:34:58.953Z,78.43
2022-10-23T06:37:25.510Z,78.05
2022-10-23T06:39:52.083Z,76.50
2022-10-23T06:42:18.764Z,75.58
2022-10-23T06:44:45.338Z,73.83
2022-10-23T06:47:12.039Z,75.73
2022-10-23T06:49:38.668Z,74.85
2022-10-23T06:52:05.312Z,73.61
2022-10-23T06:54:33.396Z,74.36
2022-10-23T06:57:00.054Z,70.64
2022-10-23T06:59:26.764Z,69.77
2022-10-23T07:04:20.178Z,73.38
2022-10-23T07:06:46.827Z,74.46
2022-10-23T07:09:15.554Z,71.42
2022-10-23T07:11:42.216Z,71.89
2022-10-23T07:14:08.901Z,70.95
2022-10-23T07:16:35.645Z,69.83
2022-10-23T07:19:02.362Z,67.38
2022-10-23T07:21:32.457Z,67.11
2022-10-23T07:23:59.273Z,65.86
2022-10-23T07:26:25.934Z,65.85
2022-10-23T07:28:53.462Z,65.45
2022-10-23T07:31:23.061Z,65.68
2022-10-23T07:33:53.198Z,64.68
2022-10-23T07:36:19.826Z,64.20
2022-10-23T07:38:46.651Z,64.48
2022-10-23T07:41:13.324Z,63.96
2022-10-23T07:43:39.948Z,62.84
2022-10-23T07:46:06.596Z,62.80
2022-10-23T07:48:33.236Z,62.34
2022-10-23T07:51:02.623Z,61.07
2022-10-23T07:53:29.455Z,61.30
2022-10-23T07:55:58.957Z,61.12
2022-10-23T07:58:27.741Z,60.42
2022-10-23T08:01:00.100Z,59.66
2022-10-23T08:03:28.202Z,60.04
2022-10-23T08:05:55.376Z,60.12
2022-10-23T08:08:23.209Z,60.11
2022-10-23T08:10:51.772Z,59.12
2022-10-23T08:13:18.493Z,59.44
2022-10-23T08:15:45.252Z,59.99
2022-10-23T08:18:12.094Z,59.53
2022-10-23T08:20:41.181Z,59.56
2022-10-23T08:23:08.496Z,60.24
2022-10-23T08:25:35.278Z,61.77
2022-10-23T08:28:04.279Z,61.23
2022-10-23T08:30:33.152Z,61.28
2022-10-23T08:32:59.748Z,61.38
2022-10-23T08:35:26.443Z,63.13
2022-10-23T08:37:53.065Z,62.34
2022-10-23T08:40:24.107Z,63.28
2022-10-23T08:43:01.803Z,63.44
2022-10-23T08:45:56.948Z,63.68
2022-10-23T08:48:37.947Z,63.88
2022-10-23T08:51:46.744Z,63.88
2022-10-23T08:54:22.576Z,64.08
2022-10-23T08:57:04.880Z,65.30
2022-10-23T08:59:43.955Z,64.71
2022-10-23T09:02:19.784Z,63.92
2022-10-23T09:04:48.904Z,64.97
2022-10-23T09:07:46.695Z,63.91
2022-10-23T09:10:23.744Z,64.09
2022-10-23T09:12:50.461Z,64.29
2022-10-23T09:15:42.573Z,64.74
2022-10-23T09:18:15.721Z,63.75
2022-10-23T09:20:45.480Z,63.77
2022-10-23T09:23:22.722Z,64.27
2022-10-23T09:25:51.762Z,64.00
2022-10-23T09:28:21.236Z,63.49
2022-10-23T09:30:49.023Z,63.58
2022-10-23T09:33:27.463Z,64.54
2022-10-23T09:36:06.408Z,63.90
2022-10-23T09:38:36.783Z,63.05
2022-10-23T09:41:25.807Z,64.06
2022-10-23T09:44:02.464Z,63.89
2022-10-23T09:46:43.099Z,63.60
2022-10-23T09:49:26.438Z,63.20
2022-10-23T09:52:08.162Z,62.79
2022-10-23T09:54:49.864Z,65.72
2022-10-23T09:57:22.617Z,68.36
2022-10-23T09:59:55.205Z,64.92
2022-10-23T10:02:30.732Z,65.86
2022-10-23T10:04:57.687Z,66.04
2022-10-23T10:07:30.193Z,65.24
2022-10-23T10:09:58.921Z,62.96
2022-10-23T10:12:43.904Z,64.00
2022-10-23T10:15:22.676Z,63.49
2022-10-23T10:18:13.491Z,64.18
2022-10-23T10:21:17.511Z,63.88
2022-10-23T10:24:30.365Z,64.19
2022-10-23T10:27:27.037Z,62.39
2022-10-23T10:30:21.801Z,63.78
2022-10-23T10:33:14.105Z,63.13
2022-10-23T10:36:18.974Z,62.90
2022-10-23T10:38:52.802Z,63.86
2022-10-23T10:41:22.406Z,64.88
2022-10-23T10:43:55.088Z,65.37
2022-10-23T10:46:39.810Z,65.35
2022-10-23T10:49:24.442Z,62.83
2022-10-23T10:52:11.819Z,63.76
2022-10-23T10:55:13.806Z,64.21
2022-10-23T10:57:47.218Z,63.47
2022-10-23T11:00:21.114Z,62.35
2022-10-23T11:03:01.512Z,60.84
2022-10-23T11:05:34.861Z,59.07
2022-10-23T11:08:09.650Z,59.79
2022-10-23T11:10:45.841Z,58.63
2022-10-23T11:13:35.368Z,58.08
2022-10-23T11:16:11.325Z,61.20
2022-10-23T11:18:43.064Z,61.57
2022-10-23T11:21:52.831Z,64.18
2022-10-23T11:24:34.588Z,65.61
2022-10-23T11:27:07.199Z,64.42
2022-10-23T11:30:01.867Z,64.17
2022-10-23T11:32:31.559Z,62.00
2022-10-23T11:35:16.645Z,61.45
2022-10-23T11:37:43.760Z,61.77
2022-10-23T11:40:10.585Z,60.68
2022-10-23T11:42:40.151Z,60.70
2022-10-23T11:45:36.721Z,60.09
2022-10-23T11:48:13.589Z,60.10
2022-10-23T11:50:46.115Z,60.32
2022-10-23T11:53:24.901Z,61.18
2022-10-23T11:56:05.183Z,61.62
2022-10-23T11:58:50.498Z,62.84
2022-10-23T12:01:26.084Z,62.46
2022-10-23T12:04:16.344Z,63.36
2022-10-23T12:06:49.312Z,62.43
2022-10-23T12:09:43.751Z,61.63
2022-10-23T12:12:10.339Z,61.50
2022-10-23T12:14:48.855Z,61.95
2022-10-23T12:17:24.725Z,61.42
2022-10-23T12:20:01.656Z,61.32
2022-10-23T12:22:51.442Z,59.89
2022-10-23T12:25:25.097Z,58.37
2022-10-23T12:28:32.133Z,59.09
2022-10-23T12:31:21.437Z,61.93
2022-10-23T12:33:50.927Z,63.63
2022-10-23T12:36:20.357Z,64.75
2022-10-23T12:38:48.919Z,68.05
2022-10-23T12:41:26.697Z,67.72
2022-10-23T12:43:58.187Z,66.19
2022-10-23T12:46:42.001Z,68.61
2022-10-23T12:49:21.376Z,68.10
2022-10-23T12:51:59.844Z,67.23
2022-10-23T12:54:27.252Z,67.50
2022-10-23T12:56:55.346Z,69.13
2022-10-23T12:59:32.170Z,69.61
2022-10-23T13:01:58.890Z,70.92
2022-10-23T13:04:30.387Z,70.93
2022-10-23T13:07:00.769Z,69.26
2022-10-23T13:09:36.362Z,67.91
2022-10-23T13:12:06.444Z,69.12
2022-10-23T13:14:39.311Z,70.17
2022-10-23T13:17:11.664Z,67.77
2022-10-23T13:19:41.523Z,66.79
2022-10-23T13:22:20.371Z,65.98
2022-10-23T13:24:47.872Z,64.81
2022-10-23T13:27:35.023Z,66.93
2022-10-23T13:30:03.198Z,65.64
2022-10-23T13:32:31.670Z,65.18
2022-10-23T13:35:10.053Z,67.36
2022-10-23T13:37:37.136Z,69.03
2022-10-23T13:40:06.988Z,66.47
2022-10-23T13:42:33.755Z,67.51
2022-10-23T13:45:00.385Z,66.31
2022-10-23T13:47:27.010Z,68.54
2022-10-23T13:49:53.644Z,69.81
2022-10-23T13:52:22.454Z,70.64
2022-10-23T13:54:49.493Z,68.12
2022-10-23T13:57:16.568Z,67.60
2022-10-23T13:59:45.901Z,65.97
2022-10-23T14:02:21.942Z,63.98
2022-10-23T14:04:52.104Z,65.11
2022-10-23T14:07:19.227Z,60.83
2022-10-23T14:09:45.832Z,62.92
2022-10-23T14:12:12.437Z,56.14
2022-10-23T14:14:39.247Z,61.10
2022-10-23T14:17:05.892Z,59.66
2022-10-23T14:22:02.011Z,56.43
2022-10-23T14:24:28.724Z,56.78
2022-10-23T14:26:55.370Z,57.78
2022-10-23T14:29:24.673Z,56.27
2022-10-23T14:31:51.708Z,59.02
2022-10-23T14:34:18.815Z,57.40
2022-10-23T14:36:50.233Z,59.45
2022-10-23T14:39:17.968Z,66.72
2022-10-23T14:41:44.615Z,68.22
2022-10-23T14:44:11.262Z,70.12
2022-10-23T14:46:37.906Z,70.86
2022-10-23T14:49:04.592Z,70.08
2022-10-23T14:51:31.362Z,68.57
2022-10-23T14:54:04.335Z,67.80
2022-10-23T14:56:33.745Z,66.22
2022-10-23T14:59:00.978Z,68.63
2022-10-23T15:01:27.781Z,66.07
2022-10-23T15:03:54.590Z,65.09
2022-10-23T15:06:21.611Z,64.91
2022-10-23T15:08:52.726Z,67.22
2022-10-23T15:11:19.366Z,67.35
2022-10-23T15:13:46.011Z,66.06
2022-10-23T15:16:13.116Z,59.29
2022-10-23T15:18:39.808Z,60.70
2022-10-23T15:21:08.035Z,56.50
2022-10-23T15:23:39.777Z,58.81
2022-10-23T15:26:14.065Z,58.00
2022-10-23T15:28:40.724Z,55.78
2022-10-23T15:31:39.326Z,57.46
2022-10-23T15:34:07.393Z,56.28
2022-10-23T15:36:34.359Z,57.00
2022-10-23T15:39:02.080Z,55.91
2022-10-23T15:41:31.602Z,58.17
2022-10-23T15:43:59.993Z,59.58
2022-10-23T15:46:26.730Z,59.29
2022-10-23T15:48:53.983Z,58.26
2022-10-23T15:51:21.208Z,58.79
2022-10-23T15:53:48.148Z,59.71
2022-10-23T15:56:14.792Z,58.97
2022-10-23T15:58:41.699Z,60.05
2022-10-23T16:01:11.383Z,59.33
2022-10-23T16:03:39.110Z,60.01
2022-10-23T16:06:15.171Z,59.81
2022-10-23T16:08:42.337Z,56.30
2022-10-23T16:11:21.767Z,58.34
2022-10-23T16:13:48.394Z,56.32
2022-10-23T16:16:16.408Z,56.46
2022-10-23T16:18:43.869Z,55.27
2022-10-23T16:21:23.069Z,55.92
2022-10-23T16:23:50.948Z,56.36
2022-10-23T16:26:19.075Z,55.17
2022-10-23T16:28:47.288Z,57.18
2022-10-23T16:31:20.053Z,57.06
2022-10-23T16:33:48.987Z,57.58
2022-10-23T16:36:17.333Z,57.91
2022-10-23T16:38:44.083Z,57.81
2022-10-23T16:41:10.735Z,56.66
2022-10-23T16:43:37.387Z,58.74
2022-10-23T16:46:08.118Z,57.87
2022-10-23T16:48:35.567Z,58.30
2022-10-23T16:51:14.353Z,57.14
2022-10-23T16:53:42.567Z,58.74
2022-10-23T16:56:11.728Z,58.81
2022-10-23T16:58:38.778Z,58.51
2022-10-23T17:01:09.411Z,60.88
2022-10-23T17:03:46.109Z,60.59
2022-10-23T17:06:15.280Z,59.64
2022-10-23T17:08:42.518Z,59.42
2022-10-23T17:11:16.543Z,58.94
2022-10-23T17:13:55.250Z,59.22
2022-10-23T17:16:26.709Z,58.51
2022-10-23T17:18:54.140Z,61.28
2022-10-23T17:21:22.045Z,59.96
2022-10-23T17:23:50.290Z,62.17
2022-10-23T17:26:20.470Z,63.54
2022-10-23T17:28:50.002Z,63.98
2022-10-23T17:31:16.682Z,65.59
2022-10-23T17:33:44.808Z,65.76
2022-10-23T17:36:15.559Z,65.12
2022-10-23T17:38:43.298Z,65.86
2022-10-23T17:41:12.477Z,66.38
2022-10-23T17:43:39.856Z,66.93
2022-10-23T17:46:08.956Z,67.73
2022-10-23T17:48:36.422Z,66.32
2022-10-23T17:51:06.506Z,68.02
2022-10-23T17:53:35.063Z,66.96
2022-10-23T17:56:03.476Z,68.83
2022-10-23T17:58:30.886Z,67.94
2022-10-23T18:00:57.779Z,68.04
2022-10-23T18:03:24.797Z,69.11
2022-10-23T18:05:51.465Z,69.32
2022-10-23T18:08:18.054Z,68.90
2022-10-23T18:10:44.673Z,71.28
2022-10-23T18:13:11.254Z,70.92
2022-10-23T18:15:37.901Z,71.86
2022-10-23T18:18:04.471Z,72.11
2022-10-23T18:20:31.058Z,69.78
2022-10-23T18:22:57.636Z,70.00
2022-10-23T18:25:24.213Z,68.65
2022-10-23T18:27:50.830Z,67.28
2022-10-23T18:30:17.489Z,68.85
2022-10-23T18:32:44.225Z,69.20
2022-10-23T18:35:11.096Z,69.21
2022-10-23T18:37:41.295Z,68.20
2022-10-23T18:40:09.407Z,68.46
2022-10-23T18:42:36.237Z,69.42
2022-10-23T18:45:02.873Z,70.35
2022-10-23T18:47:29.461Z,69.33
2022-10-23T18:49:58.837Z,69.94
2022-10-23T18:52:25.557Z,70.06
2022-10-23T18:54:54.430Z,72.39
2022-10-23T18:57:23.385Z,71.84
2022-10-23T18:59:49.999Z,70.71
2022-10-23T19:02:16.857Z,73.61
2022-10-23T19:04:43.713Z,74.25
2022-10-23T19:07:10.339Z,73.82
2022-10-23T19:09:37.069Z,74.24
2022-10-23T19:12:03.981Z,75.94
2022-10-23T19:14:30.610Z,78.27
2022-10-23T19:16:59.980Z,80.04
2022-10-23T19:19:39.455Z,79.42
2022-10-23T19:22:09.808Z,76.30
2022-10-23T19:24:53.683Z,75.32
2022-10-23T19:27:20.671Z,76.06
2022-10-23T19:29:51.665Z,75.62
2022-10-23T19:32:18.401Z,75.30
2022-10-23T19:34:44.984Z,76.55
2022-10-23T19:37:11.633Z,75.69
2022-10-23T19:39:38.512Z,75.40
2022-10-23T19:42:05.641Z,76.64
2022-10-23T19:44:32.286Z,77.46
2022-10-23T19:46:58.938Z,77.39
2022-10-23T19:49:25.533Z,77.24
2022-10-23T19:51:52.203Z,76.13
2022-10-23T19:54:20.970Z,76.10
2022-10-23T19:56:48.422Z,75.53
2022-10-23T19:59:15.142Z,75.96
2022-10-23T20:01:45.071Z,74.34
2022-10-23T20:04:15.852Z,73.01
2022-10-23T20:06:42.480Z,70.02
2022-10-23T20:09:09.190Z,70.43
2022-10-23T20:11:40.600Z,71.56
2022-10-23T20:14:07.892Z,70.17
2022-10-23T20:16:38.783Z,72.80
2022-10-23T20:19:09.363Z,72.31
2022-10-23T20:21:37.875Z,71.65
2022-10-23T20:24:07.841Z,72.45
2022-10-23T20:26:34.930Z,72.88
2022-10-23T20:29:01.538Z,74.54
2022-10-23T20:31:28.158Z,76.25
2022-10-23T20:33:55.931Z,73.86
2022-10-23T20:36:35.360Z,74.60
2022-10-23T20:39:06.292Z,74.17
2022-10-23T20:41:33.414Z,73.84
2022-10-23T20:44:00.657Z,74.28
2022-10-23T20:46:27.403Z,70.87
2022-10-23T20:48:54.132Z,71.74
2022-10-23T20:51:23.498Z,72.32
2022-10-23T20:53:51.372Z,73.11
2022-10-23T20:56:30.538Z,71.49
2022-10-23T20:59:05.324Z,73.43
2022-10-23T21:01:35.895Z,75.26
2022-10-23T21:04:03.303Z,77.71
2022-10-23T21:06:45.741Z,76.86
2022-10-23T21:09:18.812Z,77.33
2022-10-23T21:11:45.562Z,77.89
2022-10-23T21:14:12.544Z,74.76
2022-10-23T21:16:41.141Z,74.49
2022-10-23T21:19:10.460Z,74.41
2022-10-23T21:21:37.112Z,75.09
2022-10-23T21:24:10.714Z,76.21
2022-10-23T21:26:37.408Z,74.13
2022-10-23T21:29:18.007Z,73.69
2022-10-23T21:31:45.481Z,76.35
2022-10-23T21:34:12.220Z,76.80
2022-10-23T21:36:48.606Z,78.73
2022-10-23T21:39:20.703Z,78.80
2022-10-23T21:41:47.340Z,79.86
2022-10-23T21:44:13.985Z,76.53
2022-10-23T21:46:40.595Z,68.89
2022-10-23T21:49:07.334Z,68.59
2022-10-23T21:51:36.501Z,70.33
2022-10-23T21:54:10.564Z,71.08
2022-10-23T21:56:42.752Z,72.36
2022-10-23T21:59:12.780Z,72.42
2022-10-23T22:01:41.905Z,70.35
2022-10-23T22:04:09.130Z,71.86
2022-10-23T22:06:37.006Z,71.09
2022-10-23T22:09:05.701Z,69.51
2022-10-23T22:11:32.713Z,70.40
2022-10-23T22:14:01.522Z,71.44
2022-10-23T22:16:28.141Z,74.34
2022-10-23T22:18:54.886Z,75.02
2022-10-23T22:21:24.983Z,72.89
2022-10-23T22:23:54.780Z,71.11
2022-10-23T22:26:24.039Z,73.01
2022-10-23T22:28:53.962Z,69.43
2022-10-23T22:31:24.474Z,72.45
2022-10-23T22:33:52.250Z,73.04
2022-10-23T22:36:20.048Z,72.47
2022-10-23T22:38:47.105Z,71.61
2022-10-23T22:41:15.376Z,73.34
2022-10-23T22:43:42.025Z,75.57
2022-10-23T22:46:15.830Z,75.58
2022-10-23T22:48:44.033Z,76.15
2022-10-23T22:51:13.433Z,74.95
2022-10-23T22:53:40.274Z,74.51
2022-10-23T22:56:15.358Z,74.40
2022-10-23T22:58:42.214Z,73.56
2022-10-23T23:01:14.098Z,72.00
2022-10-23T23:03:41.080Z,73.84
2022-10-23T23:06:09.242Z,73.20
2022-10-23T23:08:37.616Z,73.21
2022-10-23T23:11:05.898Z,71.27
2022-10-23T23:13:32.780Z,72.54
2022-10-23T23:16:02.886Z,71.71
2022-10-23T23:18:29.798Z,72.08
2022-10-23T23:21:05.662Z,71.94
2022-10-23T23:23:32.408Z,73.27
2022-10-23T23:25:59.129Z,72.23
2022-10-23T23:28:25.741Z,73.40
2022-10-23T23:31:06.129Z,74.16
2022-10-23T23:33:32.865Z,73.29
2022-10-23T23:35:59.786Z,73.78
2022-10-23T23:38:26.775Z,72.30
2022-10-23T23:40:53.983Z,74.48
2022-10-23T23:43:20.699Z,75.43
2022-10-23T23:45:47.282Z,75.66
2022-10-23T23:48:13.952Z,74.86
2022-10-23T23:50:41.454Z,75.27
2022-10-23T23:53:08.098Z,74.84
2022-10-23T23:55:34.999Z,75.12
2022-10-23T23:58:01.977Z,76.03
